Time;durP1;ratioP1;P1;durP2;ratioP2;P2;SDS_P1;SDS_P2;PMS_P1;PMS_P2;Temp;Humidity;BMP_temperature;BMP_pressure;BME280_temperature;BME280_humidity;BME280_pressure;Samples;Min_cycle;Max_cycle;Signal;HPM_P1;HPM_P2
2023/06/18 00:00:36;;;;;;;11.65;9.32;;;;;;;25.25;47.79;101429.41;5049609;28;20131;-45
2023/06/18 00:03:01;;;;;;;12.05;9.30;;;;;;;25.28;47.87;101431.94;5052515;28;20086;-47
2023/06/18 00:05:26;;;;;;;11.65;9.13;;;;;;;25.30;47.63;101433.63;5053072;28;20040;-44
2023/06/18 00:07:52;;;;;;;15.43;9.75;;;;;;;25.27;47.65;101430.19;5054045;28;20037;-48
2023/06/18 00:10:17;;;;;;;11.23;9.20;;;;;;;25.29;47.83;101429.22;5052879;28;20533;-48
2023/06/18 00:12:42;;;;;;;14.70;9.68;;;;;;;25.27;47.88;101430.19;5053528;28;20041;-48
2023/06/18 00:15:08;;;;;;;13.27;9.68;;;;;;;25.21;47.90;101422.41;5053715;28;20120;-48
2023/06/18 00:17:33;;;;;;;13.27;10.10;;;;;;;25.16;48.17;101427.06;5053632;28;20040;-45
2023/06/18 00:19:58;;;;;;;13.20;8.88;;;;;;;25.19;47.98;101424.28;5053837;28;20033;-46
2023/06/18 00:22:24;;;;;;;12.55;9.48;;;;;;;25.06;48.25;101418.56;5053410;28;20151;-49
2023/06/18 00:24:49;;;;;;;11.30;9.50;;;;;;;25.09;48.06;101422.88;5053710;28;20108;-46
2023/06/18 00:27:15;;;;;;;14.88;10.07;;;;;;;25.05;48.26;101417.69;5051649;28;20037;-52
2023/06/18 00:29:40;;;;;;;15.77;9.90;;;;;;;25.02;48.28;101422.25;5053560;28;20111;-50
2023/06/18 00:32:07;;;;;;;15.13;9.80;;;;;;;24.96;48.32;101418.00;5053765;28;20116;-47
2023/06/18 00:34:33;;;;;;;13.32;10.05;;;;;;;24.94;48.36;101419.88;5052992;28;20551;-45
2023/06/18 00:37:00;;;;;;;14.05;10.52;;;;;;;24.78;48.78;101412.44;5053216;28;20125;-47
2023/06/18 00:39:25;;;;;;;12.40;9.48;;;;;;;24.92;48.44;101413.72;5052724;28;20410;-50
2023/06/18 00:41:51;;;;;;;14.65;9.98;;;;;;;24.89;48.61;101418.28;5053124;28;20033;-44
2023/06/18 00:44:20;;;;;;;14.45;10.13;;;;;;;24.86;48.56;101408.59;5052780;28;20095;-45
2023/06/18 00:46:46;;;;;;;13.93;10.43;;;;;;;24.90;48.85;101414.69;5052219;28;20033;-48
2023/06/18 00:49:15;;;;;;;13.20;10.07;;;;;;;24.83;48.78;101413.16;5052638;28;20036;-51
2023/06/18 00:51:44;;;;;;;12.82;9.70;;;;;;;24.89;48.28;101412.94;5052496;28;20035;-48
2023/06/18 00:54:13;;;;;;;10.95;9.18;;;;;;;24.87;48.51;101410.34;5052854;28;20485;-48
2023/06/18 00:56:50;;;;;;;14.05;9.80;;;;;;;24.86;48.66;101405.91;5051978;28;20056;-48
2023/06/18 00:59:22;;;;;;;13.68;10.18;;;;;;;24.87;48.73;101397.00;5052766;28;20033;-54
2023/06/18 01:01:51;;;;;;;13.40;10.15;;;;;;;24.80;48.99;101403.47;5052139;28;20115;-52
2023/06/18 01:04:17;;;;;;;15.40;9.27;;;;;;;24.73;49.00;101396.63;5051281;28;20045;-50
2023/06/18 01:06:42;;;;;;;16.35;9.40;;;;;;;24.66;48.72;101390.66;5051596;28;20040;-44
2023/06/18 01:09:08;;;;;;;13.25;9.88;;;;;;;24.60;48.95;101393.53;5052134;28;20224;-44
2023/06/18 01:11:37;;;;;;;15.30;10.10;;;;;;;24.57;49.25;101393.66;5051338;28;20403;-47
2023/06/18 01:14:09;;;;;;;14.90;9.93;;;;;;;24.63;48.77;101393.44;5052029;28;20032;-51
2023/06/18 01:16:43;;;;;;;12.90;9.63;;;;;;;24.60;49.05;101392.66;5051472;28;20064;-48
2023/06/18 01:19:11;;;;;;;13.10;9.30;;;;;;;24.52;48.55;101384.06;5052151;28;20057;-45
2023/06/18 01:21:40;;;;;;;11.80;9.32;;;;;;;24.44;48.62;101387.03;5051467;28;20033;-50
2023/06/18 01:24:19;;;;;;;11.77;9.32;;;;;;;24.34;49.05;101385.59;5052096;28;20040;-50
2023/06/18 01:26:45;;;;;;;12.52;10.10;;;;;;;24.30;48.57;101376.00;5050079;28;20418;-44
2023/06/18 01:29:12;;;;;;;13.18;9.80;;;;;;;24.31;48.58;101377.72;5053862;28;20051;-46
2023/06/18 01:31:38;;;;;;;12.45;9.23;;;;;;;24.35;48.09;101382.03;5054534;28;20135;-48
2023/06/18 01:34:07;;;;;;;13.13;9.40;;;;;;;24.34;47.80;101372.28;5053163;28;20056;-48
2023/06/18 01:36:37;;;;;;;12.32;9.85;;;;;;;24.28;48.04;101369.84;5051305;28;20033;-46
2023/06/18 01:39:14;;;;;;;12.98;9.55;;;;;;;24.25;48.24;101362.84;5051780;28;20041;-47
2023/06/18 01:41:44;;;;;;;14.25;9.43;;;;;;;24.12;48.39;101368.59;5051384;28;20542;-46
2023/06/18 01:44:13;;;;;;;11.60;9.38;;;;;;;24.18;47.72;101361.31;5051679;28;20123;-52
2023/06/18 01:46:41;;;;;;;10.55;8.93;;;;;;;24.15;47.78;101369.34;5050709;28;20028;-48
2023/06/18 01:49:08;;;;;;;10.02;8.80;;;;;;;24.12;47.55;101371.28;5050771;28;20452;-50
2023/06/18 01:51:36;;;;;;;11.27;9.30;;;;;;;24.13;47.18;101362.34;5050346;28;20097;-48
2023/06/18 01:54:03;;;;;;;11.00;8.50;;;;;;;24.13;46.58;101363.22;5051766;28;20116;-47
2023/06/18 01:56:29;;;;;;;11.15;8.60;;;;;;;24.12;46.27;101355.28;5051947;28;20438;-50
2023/06/18 01:58:55;;;;;;;11.05;8.45;;;;;;;24.07;45.89;101352.78;5052097;28;20102;-47
2023/06/18 02:01:21;;;;;;;12.15;8.48;;;;;;;23.96;46.04;101343.44;5051524;28;20044;-45
2023/06/18 02:03:47;;;;;;;12.63;8.70;;;;;;;24.02;45.62;101344.09;5051811;28;20029;-50
2023/06/18 02:06:13;;;;;;;12.30;9.40;;;;;;;23.97;46.21;101346.03;5051392;28;20093;-46
2023/06/18 02:08:38;;;;;;;13.65;8.65;;;;;;;24.01;45.91;101344.13;5050160;28;20430;-46
2023/06/18 02:11:03;;;;;;;12.20;9.60;;;;;;;23.95;46.40;101347.00;5051822;28;20089;-49
2023/06/18 02:13:29;;;;;;;11.52;8.52;;;;;;;23.97;46.43;101339.84;5050878;28;20476;-48
2023/06/18 02:15:54;;;;;;;15.48;9.40;;;;;;;23.89;47.04;101344.56;5050800;28;20052;-48
2023/06/18 02:18:20;;;;;;;13.23;9.75;;;;;;;23.85;47.07;101343.78;5050722;28;20036;-50
2023/06/18 02:20:45;;;;;;;14.43;9.25;;;;;;;23.90;47.11;101344.53;5050872;28;20041;-46
2023/06/18 02:23:11;;;;;;;12.82;9.63;;;;;;;23.94;46.63;101337.28;5051356;28;20506;-49
2023/06/18 02:25:36;;;;;;;13.75;9.02;;;;;;;23.77;47.43;101336.06;5049707;28;20047;-49
2023/06/18 02:28:03;;;;;;;11.50;9.57;;;;;;;23.79;47.29;101336.00;5048910;28;20388;-47
2023/06/18 02:30:29;;;;;;;13.18;9.23;;;;;;;23.86;46.45;101337.53;5049261;28;20025;-48
2023/06/18 02:32:55;;;;;;;12.85;9.40;;;;;;;23.64;47.47;101337.41;5049311;28;20040;-50
2023/06/18 02:35:21;;;;;;;15.73;9.35;;;;;;;23.79;47.07;101341.31;5049275;28;20126;-45
2023/06/18 02:37:46;;;;;;;12.40;9.38;;;;;;;23.50;47.88;101338.75;5050499;28;20033;-51
2023/06/18 02:40:14;;;;;;;13.45;9.73;;;;;;;23.69;47.29;101331.91;5050608;28;20044;-45
2023/06/18 02:42:47;;;;;;;11.65;9.30;;;;;;;23.74;47.27;101336.16;5050099;28;20395;-49
2023/06/18 02:45:19;;;;;;;12.80;8.90;;;;;;;23.75;47.38;101337.91;5050020;28;20045;-48
2023/06/18 02:47:45;;;;;;;11.27;8.70;;;;;;;23.68;47.58;101335.50;5050027;28;20820;-50
2023/06/18 02:50:12;;;;;;;14.73;9.15;;;;;;;23.68;48.01;101332.84;5050598;28;20586;-49
2023/06/18 02:52:38;;;;;;;14.02;9.45;;;;;;;23.68;47.70;101332.84;5050003;28;20407;-50
2023/06/18 02:55:04;;;;;;;14.00;9.13;;;;;;;23.57;48.28;101332.31;5048581;28;20278;-47
2023/06/18 02:57:30;;;;;;;13.00;9.25;;;;;;;23.55;47.38;101329.69;5049667;28;20036;-48
2023/06/18 02:59:55;;;;;;;15.57;9.32;;;;;;;23.70;47.60;101333.66;5049874;28;20040;-50
2023/06/18 03:02:20;;;;;;;11.57;8.80;;;;;;;23.51;48.47;101343.16;5049624;28;20043;-46
2023/06/18 03:04:46;;;;;;;11.40;8.85;;;;;;;23.58;48.06;101332.28;5049941;28;20498;-49
2023/06/18 03:07:11;;;;;;;14.15;9.25;;;;;;;23.64;48.20;101339.19;5049669;28;20063;-45
2023/06/18 03:09:36;;;;;;;12.60;8.68;;;;;;;23.62;48.43;101328.59;5049293;28;20044;-47
2023/06/18 03:12:02;;;;;;;13.27;9.70;;;;;;;23.58;48.13;101337.59;5050107;28;20059;-45
2023/06/18 03:14:27;;;;;;;11.55;9.13;;;;;;;23.60;48.55;101337.56;5049449;28;20033;-46
2023/06/18 03:16:52;;;;;;;14.02;9.60;;;;;;;23.49;48.64;101337.88;5049144;28;20032;-53
2023/06/18 03:19:17;;;;;;;17.08;10.07;;;;;;;23.44;48.94;101342.47;5049361;28;20542;-46
2023/06/18 03:21:43;;;;;;;17.73;10.50;;;;;;;23.45;48.76;101339.75;5049467;28;20036;-49
2023/06/18 03:24:10;;;;;;;15.70;9.80;;;;;;;23.52;48.80;101339.59;5049912;28;20384;-46
2023/06/18 03:26:36;;;;;;;14.13;10.00;;;;;;;23.52;48.65;101339.59;5049802;28;20120;-48
2023/06/18 03:29:05;;;;;;;15.55;10.48;;;;;;;23.38;49.18;101337.34;5052368;28;20505;-49
2023/06/18 03:31:32;;;;;;;13.98;10.00;;;;;;;23.51;49.44;101329.88;5050520;28;20041;-44
2023/06/18 03:34:01;;;;;;;13.55;9.93;;;;;;;23.51;49.35;101341.38;5051667;28;20395;-46
2023/06/18 03:36:30;;;;;;;15.85;9.77;;;;;;;23.49;49.01;101343.22;5049677;28;20040;-49
2023/06/18 03:38:56;;;;;;;11.93;9.73;;;;;;;23.45;49.46;101336.22;5050182;28;20052;-46
2023/06/18 03:41:22;;;;;;;15.25;9.70;;;;;;;23.48;49.07;101330.84;5050303;28;20025;-46
2023/06/18 03:43:47;;;;;;;14.13;9.40;;;;;;;23.46;49.09;101335.31;5049786;28;20053;-45
2023/06/18 03:46:12;;;;;;;14.52;9.82;;;;;;;23.47;49.68;101338.88;5049421;28;20025;-49
2023/06/18 03:48:39;;;;;;;13.90;9.77;;;;;;;23.41;49.61;101340.78;5049248;28;20112;-45
2023/06/18 03:51:04;;;;;;;13.75;10.02;;;;;;;23.49;50.13;101342.34;5049673;28;20044;-44
2023/06/18 03:53:30;;;;;;;14.68;10.18;;;;;;;23.60;49.64;101338.44;5048912;28;20399;-47
2023/06/18 03:55:56;;;;;;;14.63;10.43;;;;;;;23.49;50.57;101332.56;5048805;28;20399;-45
2023/06/18 03:58:21;;;;;;;18.17;11.05;;;;;;;23.44;50.45;101332.69;5048702;28;20037;-46
2023/06/18 04:00:47;;;;;;;15.32;11.18;;;;;;;23.58;49.94;101342.06;5049182;28;20029;-53
2023/06/18 04:03:12;;;;;;;16.55;11.05;;;;;;;23.64;49.81;101340.06;5049284;28;20037;-47
2023/06/18 04:05:38;;;;;;;15.90;11.02;;;;;;;23.55;49.89;101337.69;5048483;28;20565;-47
2023/06/18 04:08:03;;;;;;;18.08;11.30;;;;;;;23.53;50.09;101336.03;5049248;28;20425;-48
2023/06/18 04:10:29;;;;;;;16.98;10.13;;;;;;;23.77;49.61;101336.06;5048344;28;20407;-46
2023/06/18 04:12:54;;;;;;;14.93;10.27;;;;;;;23.87;49.31;101333.97;5049340;28;20033;-45
2023/06/18 04:15:20;;;;;;;15.18;10.90;;;;;;;23.84;49.48;101334.06;5048229;28;20497;-49
2023/06/18 04:17:45;;;;;;;14.68;10.77;;;;;;;23.96;49.55;101338.09;5049323;28;20037;-48
2023/06/18 04:20:11;;;;;;;15.48;10.65;;;;;;;24.04;49.34;101342.22;5049079;28;20232;-49
2023/06/18 04:22:37;;;;;;;14.15;10.35;;;;;;;24.09;49.30;101347.41;5048725;28;20087;-47
2023/06/18 04:25:02;;;;;;;14.68;10.30;;;;;;;24.15;48.97;101350.72;5048858;28;20649;-47
2023/06/18 04:27:28;;;;;;;14.18;10.10;;;;;;;24.26;48.79;101339.72;5048596;28;20063;-53
2023/06/18 04:29:53;;;;;;;15.50;10.45;;;;;;;24.26;48.78;101339.72;5048900;28;20426;-47
2023/06/18 04:32:18;;;;;;;15.90;10.68;;;;;;;24.36;48.92;101337.59;5048588;28;20064;-48
2023/06/18 04:34:44;;;;;;;14.98;10.68;;;;;;;24.38;48.73;101343.75;5048761;28;20044;-48
2023/06/18 04:37:09;;;;;;;16.45;11.02;;;;;;;24.52;48.03;101344.09;5048612;28;20112;-48
2023/06/18 04:39:34;;;;;;;15.68;10.50;;;;;;;24.60;47.69;101350.88;5048321;28;20126;-49
2023/06/18 04:42:00;;;;;;;15.15;10.40;;;;;;;24.62;47.66;101349.03;5049163;28;20052;-48
2023/06/18 04:44:26;;;;;;;17.55;10.77;;;;;;;24.66;47.76;101349.78;5049415;28;20111;-47
2023/06/18 04:46:51;;;;;;;16.73;11.15;;;;;;;24.66;47.95;101355.13;5049138;28;20033;-45
2023/06/18 04:49:16;;;;;;;14.70;11.10;;;;;;;24.74;47.62;101355.72;5051131;28;20381;-50
2023/06/18 04:51:43;;;;;;;14.55;10.52;;;;;;;24.75;47.89;101361.91;5053164;28;20037;-46
2023/06/18 04:54:09;;;;;;;17.55;11.38;;;;;;;24.62;48.09;101353.50;5053899;28;20382;-45
2023/06/18 04:56:34;;;;;;;17.10;11.52;;;;;;;24.92;47.47;101357.72;5052560;28;20114;-49
2023/06/18 04:59:00;;;;;;;17.00;11.70;;;;;;;25.21;46.62;101361.03;5052941;28;20108;-48
2023/06/18 05:01:25;;;;;;;15.77;11.20;;;;;;;25.14;46.79;101360.41;5053450;28;20082;-46
2023/06/18 05:03:51;;;;;;;18.85;12.55;;;;;;;24.96;47.14;101356.66;5053639;28;20471;-47
2023/06/18 05:06:16;;;;;;;14.60;10.98;;;;;;;25.60;46.12;101350.59;5053001;28;20044;-49
2023/06/18 05:08:41;;;;;;;17.02;11.70;;;;;;;25.75;45.58;101356.16;5051794;28;20025;-50
2023/06/18 05:11:06;;;;;;;20.83;12.30;;;;;;;25.42;45.98;101355.72;5052335;28;20068;-46
2023/06/18 05:13:32;;;;;;;18.25;11.80;;;;;;;25.39;45.99;101354.97;5051759;28;20120;-52
2023/06/18 05:15:57;;;;;;;18.02;12.02;;;;;;;25.33;46.17;101361.41;5051509;28;20029;-47
2023/06/18 05:18:22;;;;;;;18.55;12.02;;;;;;;25.26;46.45;101354.59;5051751;28;20045;-50
2023/06/18 05:20:48;;;;;;;17.13;11.55;;;;;;;25.69;45.32;101351.06;5052807;28;20124;-48
2023/06/18 05:23:13;;;;;;;15.35;12.15;;;;;;;25.68;45.19;101351.13;5052270;28;20033;-47
2023/06/18 05:25:38;;;;;;;17.50;12.07;;;;;;;26.36;43.79;101350.00;5050981;28;20033;-55
2023/06/18 05:28:04;;;;;;;15.68;11.35;;;;;;;26.86;42.86;101358.41;5051093;28;20507;-45
2023/06/18 05:30:30;;;;;;;16.77;12.00;;;;;;;27.09;42.17;101354.66;5052205;28;20037;-45
2023/06/18 05:32:55;;;;;;;17.58;11.82;;;;;;;27.56;41.20;101355.97;5054143;28;20403;-47
2023/06/18 05:35:20;;;;;;;19.35;11.90;;;;;;;27.50;40.77;101355.38;5052637;28;20033;-45
2023/06/18 05:37:46;;;;;;;16.02;11.38;;;;;;;27.60;40.81;101351.31;5052370;28;20025;-46
2023/06/18 05:40:11;;;;;;;18.17;11.93;;;;;;;27.07;41.64;101343.19;5052200;28;20561;-48
2023/06/18 05:42:39;;;;;;;20.70;11.80;;;;;;;27.15;41.97;101355.25;5052039;28;20483;-49
2023/06/18 05:45:05;;;;;;;15.27;11.27;;;;;;;27.00;42.27;101347.97;5051766;28;20025;-46
2023/06/18 05:47:30;;;;;;;18.60;11.88;;;;;;;27.04;42.08;101346.88;5051827;28;20037;-46
2023/06/18 05:49:56;;;;;;;18.73;12.20;;;;;;;26.85;42.48;101368.22;5051608;28;20441;-53
2023/06/18 05:52:21;;;;;;;14.57;11.75;;;;;;;26.87;42.18;101381.53;5051788;28;20033;-46
2023/06/18 05:54:46;;;;;;;15.43;12.20;;;;;;;26.23;43.73;101401.31;5051823;28;20037;-46
2023/06/18 05:57:13;;;;;;;23.00;12.05;;;;;;;25.80;44.44;101430.75;5051176;28;20059;-47
2023/06/18 05:59:39;;;;;;;20.65;13.02;;;;;;;25.87;44.64;101389.50;5050086;28;20029;-49
2023/06/18 06:02:05;;;;;;;17.33;12.27;;;;;;;25.97;44.56;101385.53;5051499;28;20494;-47
2023/06/18 06:04:30;;;;;;;17.48;12.50;;;;;;;25.98;44.26;101394.41;5050993;28;20080;-48
2023/06/18 06:06:55;;;;;;;21.27;13.85;;;;;;;25.62;45.21;101408.31;5050958;28;20056;-45
2023/06/18 06:09:21;;;;;;;16.15;12.48;;;;;;;25.80;44.54;101396.03;5050620;28;20035;-44
2023/06/18 06:11:46;;;;;;;17.77;12.30;;;;;;;25.91;45.21;101384.91;5051143;28;20384;-45
2023/06/18 06:14:11;;;;;;;17.48;12.65;;;;;;;26.02;44.29;101386.19;5051371;28;20044;-45
2023/06/18 06:16:37;;;;;;;18.02;12.70;;;;;;;26.08;43.74;101377.03;5050364;28;20033;-50
2023/06/18 06:19:02;;;;;;;15.95;12.75;;;;;;;25.82;43.37;101378.13;5051163;28;20411;-46
2023/06/18 06:21:29;;;;;;;19.02;12.38;;;;;;;26.17;43.22;101365.94;5050284;28;20040;-50
2023/06/18 06:23:55;;;;;;;20.25;12.07;;;;;;;26.36;42.31;101363.38;5051261;28;20033;-45
2023/06/18 06:26:21;;;;;;;17.30;11.85;;;;;;;26.64;41.85;101371.91;5048423;28;20033;-48
2023/06/18 06:28:46;;;;;;;15.50;11.93;;;;;;;26.84;41.18;101368.28;5050989;28;20037;-44
2023/06/18 06:31:11;;;;;;;16.30;11.82;;;;;;;27.16;39.90;101372.19;5051313;28;20418;-45
2023/06/18 06:33:37;;;;;;;17.67;11.35;;;;;;;27.46;39.79;101376.94;5050725;28;20451;-45
2023/06/18 06:36:02;;;;;;;17.75;11.65;;;;;;;27.55;39.35;101381.00;5050746;28;20120;-51
2023/06/18 06:38:27;;;;;;;15.82;10.63;;;;;;;27.74;39.10;101387.19;5050593;28;20115;-51
2023/06/18 06:40:53;;;;;;;14.88;11.02;;;;;;;27.68;38.35;101389.31;5050996;28;20083;-49
2023/06/18 06:43:18;;;;;;;12.38;9.48;;;;;;;28.10;37.87;101380.91;5050828;28;20057;-50
2023/06/18 06:45:45;;;;;;;14.85;10.90;;;;;;;28.04;37.78;101383.91;5051073;28;20339;-46
2023/06/18 06:48:10;;;;;;;13.77;9.63;;;;;;;27.73;38.49;101387.28;5051534;28;20033;-45
2023/06/18 06:50:35;;;;;;;14.48;10.57;;;;;;;27.74;38.74;101392.56;5051449;28;20119;-49
2023/06/18 06:53:00;;;;;;;17.38;10.80;;;;;;;27.76;37.55;101387.97;5052029;28;20033;-46
2023/06/18 06:55:26;;;;;;;16.13;10.82;;;;;;;27.60;38.02;101387.00;5050180;28;20029;-46
2023/06/18 06:57:51;;;;;;;13.25;10.10;;;;;;;27.64;37.60;101387.72;5050436;28;20507;-47
2023/06/18 07:00:17;;;;;;;14.30;10.40;;;;;;;27.79;37.57;101386.97;5050496;28;20087;-45
2023/06/18 07:02:42;;;;;;;17.48;10.48;;;;;;;28.08;36.76;101375.63;5050148;28;20399;-46
2023/06/18 07:05:09;;;;;;;16.67;10.63;;;;;;;28.44;36.67;101377.34;5048956;28;20037;-52
2023/06/18 07:07:35;;;;;;;17.13;10.48;;;;;;;28.12;35.02;101382.56;5048298;28;20048;-50
2023/06/18 07:10:01;;;;;;;14.82;9.90;;;;;;;28.33;35.65;101383.28;5049774;28;20029;-48
2023/06/18 07:12:26;;;;;;;16.50;10.77;;;;;;;28.21;35.78;101397.34;5049512;28;20044;-47
2023/06/18 07:14:52;;;;;;;14.63;10.05;;;;;;;28.64;35.79;101390.59;5050111;28;20036;-50
2023/06/18 07:17:17;;;;;;;13.57;10.25;;;;;;;28.34;35.71;101393.09;5048210;28;20037;-49
2023/06/18 07:19:42;;;;;;;11.07;9.57;;;;;;;28.67;35.56;101392.25;5049170;28;20032;-45
2023/06/18 07:22:08;;;;;;;14.05;9.95;;;;;;;28.44;35.20;101397.00;5050323;28;20060;-47
2023/06/18 07:24:33;;;;;;;11.32;9.00;;;;;;;28.60;34.97;101397.94;5049801;28;20106;-45
2023/06/18 07:26:58;;;;;;;15.48;10.25;;;;;;;28.22;34.53;101402.63;5050213;28;20094;-48
2023/06/18 07:29:24;;;;;;;12.40;10.02;;;;;;;28.39;34.62;101403.56;5049621;28;20467;-49
2023/06/18 07:31:49;;;;;;;14.10;10.10;;;;;;;28.79;33.13;101399.69;5050843;28;20036;-48
2023/06/18 07:34:16;;;;;;;13.63;9.98;;;;;;;28.92;33.04;101396.22;5050957;28;20036;-51
2023/06/18 07:36:41;;;;;;;13.35;9.48;;;;;;;29.34;32.43;101393.00;5049384;28;20040;-48
2023/06/18 07:39:08;;;;;;;14.70;9.70;;;;;;;29.35;33.26;101397.41;5049247;28;20037;-51
2023/06/18 07:41:33;;;;;;;10.70;8.68;;;;;;;29.41;33.06;101397.06;5049080;28;20033;-48
2023/06/18 07:43:58;;;;;;;13.23;9.10;;;;;;;29.63;32.70;101396.72;5049497;28;20044;-49
2023/06/18 07:46:23;;;;;;;13.02;8.73;;;;;;;29.48;33.42;101400.28;5048600;28;20041;-49
2023/06/18 07:48:49;;;;;;;14.55;9.80;;;;;;;28.86;33.57;101401.06;5048037;28;20033;-47
2023/06/18 07:51:14;;;;;;;11.07;9.00;;;;;;;28.81;34.03;101405.81;5048488;28;20477;-47
2023/06/18 07:53:40;;;;;;;14.48;10.52;;;;;;;29.08;34.05;101401.63;5049641;28;20388;-49
2023/06/18 07:56:05;;;;;;;12.93;9.52;;;;;;;29.10;33.59;101398.84;5049605;28;20457;-47
2023/06/18 07:58:30;;;;;;;12.25;9.70;;;;;;;29.05;34.35;101407.16;5049324;28;20056;-48
2023/06/18 08:00:56;;;;;;;12.40;10.30;;;;;;;28.58;34.19;101404.34;5049336;28;20437;-52
2023/06/18 08:03:21;;;;;;;17.27;10.93;;;;;;;27.97;34.75;101407.47;5048918;28;20076;-50
2023/06/18 08:05:47;;;;;;;13.85;10.90;;;;;;;28.23;34.71;101403.50;5048701;28;20032;-49
2023/06/18 08:08:13;;;;;;;15.13;10.85;;;;;;;28.33;34.89;101401.19;5049216;28;20495;-50
2023/06/18 08:10:39;;;;;;;15.57;10.90;;;;;;;28.48;34.64;101400.41;5047839;28;20037;-46
2023/06/18 08:13:05;;;;;;;13.43;10.02;;;;;;;28.65;35.37;101398.56;5048296;28;20159;-51
2023/06/18 08:15:30;;;;;;;15.80;12.25;;;;;;;27.86;35.99;101391.06;5048450;28;20037;-45
2023/06/18 08:17:55;;;;;;;16.10;11.52;;;;;;;27.83;36.29;101394.75;5048983;28;20036;-48
2023/06/18 08:20:21;;;;;;;14.93;10.90;;;;;;;28.38;35.24;101383.91;5048674;28;20047;-52
2023/06/18 08:22:46;;;;;;;15.60;10.27;;;;;;;28.61;35.55;101382.69;5048895;28;20033;-50
2023/06/18 08:25:11;;;;;;;16.33;12.05;;;;;;;28.44;35.04;101388.09;5052658;28;20491;-49
2023/06/18 08:27:37;;;;;;;14.73;11.05;;;;;;;28.74;35.15;101388.28;5052851;28;20534;-47
2023/06/18 08:30:04;;;;;;;11.45;9.48;;;;;;;29.22;34.59;101385.59;5053288;28;20037;-45
2023/06/18 08:32:29;;;;;;;14.23;9.55;;;;;;;29.50;35.42;101376.88;5051090;28;20528;-50
2023/06/18 08:34:55;;;;;;;15.55;10.40;;;;;;;29.52;35.61;101374.97;5053441;28;20495;-45
2023/06/18 08:37:20;;;;;;;14.65;10.60;;;;;;;29.66;34.59;101369.66;5053041;28;20456;-49
2023/06/18 08:39:45;;;;;;;14.95;10.23;;;;;;;29.57;33.96;101375.59;5053238;28;20040;-48
2023/06/18 08:42:17;;;;;;;15.48;11.98;;;;;;;28.67;34.48;101372.50;5053559;28;20411;-47
2023/06/18 08:44:45;;;;;;;14.30;10.88;;;;;;;29.21;34.69;101367.78;5051636;28;20170;-48
2023/06/18 08:47:11;;;;;;;13.10;10.65;;;;;;;29.68;32.99;101370.44;5052648;28;20546;-52
2023/06/18 08:49:40;;;;;;;14.00;9.77;;;;;;;30.20;33.80;101368.22;5051553;28;20041;-50
2023/06/18 08:52:08;;;;;;;17.88;11.23;;;;;;;29.65;33.70;101362.53;5053031;28;20060;-45
2023/06/18 08:54:36;;;;;;;24.88;11.15;;;;;;;29.39;34.24;101361.41;5050997;28;20071;-47
2023/06/18 08:57:16;;;;;;;14.13;10.80;;;;;;;29.83;33.63;101360.59;5052348;28;20458;-47
2023/06/18 08:59:43;;;;;;;12.80;11.20;;;;;;;30.76;31.97;101358.50;5052065;28;20043;-48
2023/06/18 09:02:10;;;;;;;13.18;9.68;;;;;;;30.74;31.20;101355.03;5052685;28;20044;-45
2023/06/18 09:04:37;;;;;;;16.00;11.20;;;;;;;29.95;33.60;101356.38;5051919;28;20041;-48
2023/06/18 09:07:02;;;;;;;19.48;11.30;;;;;;;30.03;32.79;101352.25;5052006;28;20562;-48
2023/06/18 09:09:29;;;;;;;13.13;10.85;;;;;;;30.21;32.60;101353.81;5051825;28;20121;-47
2023/06/18 09:11:55;;;;;;;13.50;10.90;;;;;;;30.15;33.17;101351.50;5052506;28;20491;-46
2023/06/18 09:14:21;;;;;;;15.95;11.50;;;;;;;30.60;32.91;101350.53;5052016;28;20087;-46
2023/06/18 09:16:46;;;;;;;15.27;11.88;;;;;;;30.16;32.74;101360.44;5051751;28;20037;-47
2023/06/18 09:19:12;;;;;;;15.88;10.70;;;;;;;29.62;35.10;101361.88;5051784;28;20037;-49
2023/06/18 09:21:42;;;;;;;15.65;10.75;;;;;;;29.57;34.52;101361.28;5051950;28;20052;-49
2023/06/18 09:24:18;;;;;;;15.40;11.05;;;;;;;29.84;33.53;101365.88;5051932;28;20454;-46
2023/06/18 09:26:44;;;;;;;14.57;10.95;;;;;;;29.74;33.73;101371.91;5051557;28;20104;-47
2023/06/18 09:29:10;;;;;;;15.18;10.52;;;;;;;30.34;33.44;101369.22;5051978;28;20575;-47
2023/06/18 09:31:37;;;;;;;15.32;11.35;;;;;;;30.01;33.31;101362.22;5051524;28;20037;-47
2023/06/18 09:34:23;;;;;;;13.27;11.73;;;;;;;29.83;33.74;101357.91;5052319;28;20125;-46
2023/06/18 09:36:50;;;;;;;14.77;11.32;;;;;;;30.01;33.20;101354.16;5051010;28;20057;-45
2023/06/18 09:39:23;;;;;;;18.00;11.40;;;;;;;30.63;32.37;101353.03;5051792;28;20039;-46
2023/06/18 09:41:51;;;;;;;13.20;10.60;;;;;;;30.91;32.29;101345.91;5051599;28;20029;-46
2023/06/18 09:44:17;;;;;;;13.13;9.70;;;;;;;31.73;31.31;101348.59;5051782;28;20103;-45
2023/06/18 09:46:50;;;;;;;13.38;10.40;;;;;;;31.83;30.56;101347.03;5050653;28;20044;-47
2023/06/18 09:49:18;;;;;;;13.32;10.15;;;;;;;31.89;29.14;101348.44;5051563;28;20043;-48
2023/06/18 09:51:44;;;;;;;16.05;11.00;;;;;;;31.71;29.75;101339.78;5051083;28;20448;-49
2023/06/18 09:54:10;;;;;;;14.50;10.98;;;;;;;31.25;30.57;101347.31;5051555;28;20082;-46
2023/06/18 09:56:37;;;;;;;15.63;10.93;;;;;;;31.15;30.70;101348.88;5050878;28;20036;-51
2023/06/18 09:59:03;;;;;;;12.80;10.63;;;;;;;30.95;31.53;101339.34;5033204;28;20040;-47
2023/06/18 10:01:43;;;;;;;12.98;11.05;;;;;;;31.00;31.20;101340.78;5050706;28;20145;-46
2023/06/18 10:04:09;;;;;;;12.10;9.90;;;;;;;30.86;31.61;101343.50;5051469;28;20041;-46
2023/06/18 10:06:35;;;;;;;20.42;10.80;;;;;;;30.46;32.31;101347.81;5050555;28;20098;-48
2023/06/18 10:09:01;;;;;;;14.07;10.60;;;;;;;30.20;32.60;101349.41;5049552;28;20029;-49
2023/06/18 10:11:29;;;;;;;13.40;10.20;;;;;;;30.30;32.82;101344.34;5050913;28;20487;-46
2023/06/18 10:14:00;;;;;;;13.82;9.75;;;;;;;30.24;33.11;101350.97;5051447;28;20032;-47
2023/06/18 10:16:28;;;;;;;14.05;10.50;;;;;;;29.66;33.81;101347.28;5051107;28;20041;-45
2023/06/18 10:19:00;;;;;;;11.20;9.93;;;;;;;29.84;34.21;101340.84;5050154;28;20048;-46
2023/06/18 10:21:28;;;;;;;13.63;9.85;;;;;;;30.00;33.81;101340.84;5050151;28;20507;-46
2023/06/18 10:23:58;;;;;;;14.15;9.73;;;;;;;30.19;33.94;101339.59;5051792;28;20025;-44
2023/06/18 10:26:25;;;;;;;11.27;9.95;;;;;;;30.26;33.65;101334.72;5051002;28;20087;-49
2023/06/18 10:28:51;;;;;;;15.13;10.07;;;;;;;30.40;33.63;101331.19;5050009;28;20060;-47
2023/06/18 10:31:18;;;;;;;14.63;11.30;;;;;;;29.57;34.83;101327.22;5050464;28;20388;-48
2023/06/18 10:33:46;;;;;;;17.70;10.85;;;;;;;30.11;33.76;101332.97;5050684;28;20041;-46
2023/06/18 10:36:12;;;;;;;19.58;10.77;;;;;;;30.19;34.16;101330.69;5050163;28;20025;-49
2023/06/18 10:38:38;;;;;;;14.73;10.68;;;;;;;29.98;33.78;101332.84;5048747;28;20492;-47
2023/06/18 10:41:16;;;;;;;11.75;8.80;;;;;;;30.14;34.18;101330.09;5050465;28;20070;-50
2023/06/18 10:43:42;;;;;;;12.02;10.07;;;;;;;29.95;34.05;101329.50;5049824;28;20577;-47
2023/06/18 10:46:08;;;;;;;12.02;9.63;;;;;;;30.17;33.81;101319.16;5049522;28;20044;-48
2023/06/18 10:48:33;;;;;;;11.57;9.32;;;;;;;30.44;33.28;101319.25;5049969;28;20499;-46
2023/06/18 10:51:14;;;;;;;12.65;8.82;;;;;;;30.36;34.04;101324.28;5050416;28;20039;-46
2023/06/18 10:53:41;;;;;;;13.48;8.77;;;;;;;30.22;33.51;101317.03;5050011;28;20434;-49
2023/06/18 10:56:06;;;;;;;11.18;8.45;;;;;;;30.27;34.20;101320.31;5049793;28;20033;-49
2023/06/18 10:58:33;;;;;;;13.30;8.57;;;;;;;30.33;33.88;101319.94;5049029;28;20530;-47
2023/06/18 11:00:59;;;;;;;13.38;9.25;;;;;;;30.77;33.12;101317.16;5050046;28;20120;-49
2023/06/18 11:03:36;;;;;;;11.82;9.02;;;;;;;30.93;33.48;101319.72;5049921;28;20136;-49
2023/06/18 11:06:04;;;;;;;9.27;8.27;;;;;;;31.21;34.15;101319.72;5049879;28;20102;-48
2023/06/18 11:08:31;;;;;;;10.05;8.15;;;;;;;31.59;32.69;101319.03;5049787;28;20052;-50